createdAt,value
2023-01-13T00:01:12.692Z,97861.41
2023-01-13T00:03:40.547Z,97873.66
2023-01-13T00:06:09.832Z,97875.38
2023-01-13T00:08:37.575Z,97876.59
2023-01-13T00:11:05.357Z,97873.78
2023-01-13T00:13:35.301Z,97876.50
2023-01-13T00:16:07.546Z,97881.25
2023-01-13T00:18:36.923Z,97872.84
2023-01-13T00:21:06.450Z,97888.75
2023-01-13T00:23:34.801Z,97877.41
2023-01-13T00:26:04.896Z,97880.63
2023-01-13T00:28:32.635Z,97888.06
2023-01-13T00:31:15.191Z,97877.34
2023-01-13T00:33:43.076Z,97880.81
2023-01-13T00:36:14.162Z,97887.84
2023-01-13T00:38:42.981Z,97885.69
2023-01-13T00:41:17.885Z,97877.72
2023-01-13T00:43:45.766Z,97879.91
2023-01-13T00:46:14.833Z,97883.75
2023-01-13T00:48:42.699Z,97867.81
2023-01-13T00:51:18.231Z,97877.44
2023-01-13T00:53:47.448Z,97864.13
2023-01-13T00:56:38.554Z,97869.06
2023-01-13T00:59:11.320Z,97862.38
2023-01-13T01:01:39.362Z,97862.06
2023-01-13T01:04:07.228Z,97867.81
2023-01-13T01:06:34.921Z,97863.31
2023-01-13T01:09:03.272Z,97869.06
2023-01-13T01:11:31.694Z,97860.75
2023-01-13T01:14:01.721Z,97873.41
2023-01-13T01:16:30.210Z,97864.47
2023-01-13T01:18:58.069Z,97865.53
2023-01-13T01:21:26.608Z,97860.16
2023-01-13T01:23:54.698Z,97857.28
2023-01-13T01:26:26.038Z,97867.56
2023-01-13T01:28:53.822Z,97864.09
2023-01-13T01:31:26.572Z,97855.88
2023-01-13T01:33:54.550Z,97850.25
2023-01-13T01:36:22.925Z,97859.31
2023-01-13T01:38:50.652Z,97853.75
2023-01-13T01:41:22.677Z,97852.75
2023-01-13T01:43:59.958Z,97850.66
2023-01-13T01:46:41.448Z,97854.69
2023-01-13T01:49:09.230Z,97841.97
2023-01-13T01:51:42.760Z,97842.53
2023-01-13T01:54:11.645Z,97845.00
2023-01-13T01:56:39.301Z,97842.03
2023-01-13T01:59:06.991Z,97843.47
2023-01-13T02:01:34.785Z,97845.94
2023-01-13T02:04:14.489Z,97845.03
2023-01-13T02:06:43.132Z,97850.53
2023-01-13T02:09:11.201Z,97839.59
2023-01-13T02:11:57.404Z,97840.84
2023-01-13T02:14:26.714Z,97844.91
2023-01-13T02:17:06.995Z,97844.47
2023-01-13T02:20:00.499Z,97843.59
2023-01-13T02:23:05.787Z,97834.00
2023-01-13T02:25:42.167Z,97839.88
2023-01-13T02:28:28.463Z,97840.38
2023-01-13T02:31:20.067Z,97844.69
2023-01-13T02:34:09.259Z,97839.25
2023-01-13T02:36:43.106Z,97842.53
2023-01-13T02:39:16.668Z,97840.03
2023-01-13T02:42:15.000Z,97842.38
2023-01-13T02:44:45.515Z,97841.63
2023-01-13T02:47:24.630Z,97848.44
2023-01-13T02:49:58.377Z,97841.97
2023-01-13T02:52:29.835Z,97839.09
2023-01-13T02:55:06.321Z,97839.34
2023-01-13T02:57:34.374Z,97839.44
2023-01-13T03:00:02.403Z,97847.06
2023-01-13T03:02:30.952Z,97847.38
2023-01-13T03:04:59.518Z,97852.69
2023-01-13T03:07:39.341Z,97842.66
2023-01-13T03:10:47.836Z,97845.94
2023-01-13T03:13:37.715Z,97846.16
2023-01-13T03:16:21.726Z,97856.53
2023-01-13T03:19:24.798Z,97850.94
2023-01-13T03:22:04.491Z,97848.03
2023-01-13T03:25:11.937Z,97849.94
2023-01-13T03:27:49.048Z,97862.78
2023-01-13T03:30:32.660Z,97856.72
2023-01-13T03:33:05.392Z,97857.72
2023-01-13T03:35:38.265Z,97856.44
2023-01-13T03:38:09.648Z,97857.66
2023-01-13T03:40:42.740Z,97858.00
2023-01-13T03:43:30.914Z,97856.56
2023-01-13T03:46:01.856Z,97859.13
2023-01-13T03:48:29.762Z,97856.91
2023-01-13T03:50:59.982Z,97860.72
2023-01-13T03:53:32.527Z,97856.28
2023-01-13T03:56:07.863Z,97865.53
2023-01-13T03:58:38.010Z,97855.91
2023-01-13T04:01:16.457Z,97859.28
2023-01-13T04:04:00.329Z,97866.94
2023-01-13T04:06:59.547Z,97860.91
2023-01-13T04:09:41.044Z,97856.50
2023-01-13T04:12:25.184Z,97866.59
2023-01-13T04:14:53.255Z,97865.84
2023-01-13T04:17:21.011Z,97868.81
2023-01-13T04:19:48.756Z,97873.41
2023-01-13T04:22:16.472Z,97871.38
2023-01-13T04:24:44.176Z,97872.38
2023-01-13T04:27:11.882Z,97859.44
2023-01-13T04:29:39.625Z,97859.16
2023-01-13T04:32:07.316Z,97866.50
2023-01-13T04:34:35.076Z,97866.50
2023-01-13T04:37:02.927Z,97861.03
2023-01-13T04:39:30.694Z,97875.81
2023-01-13T04:41:58.357Z,97868.03
2023-01-13T04:44:26.747Z,97867.69
2023-01-13T04:46:54.547Z,97867.06
2023-01-13T04:49:22.241Z,97882.66
2023-01-13T04:51:50.801Z,97878.03
2023-01-13T04:54:18.478Z,97877.47
2023-01-13T04:56:46.286Z,97879.69
2023-01-13T04:59:14.162Z,97885.69
2023-01-13T05:01:41.999Z,97886.50
2023-01-13T05:04:09.799Z,97882.28
2023-01-13T05:06:37.545Z,97881.16
2023-01-13T05:09:05.268Z,97885.94
2023-01-13T05:11:51.597Z,97889.50
2023-01-13T05:14:37.884Z,97889.50
2023-01-13T05:17:05.659Z,97891.16
2023-01-13T05:19:34.768Z,97889.94
2023-01-13T05:22:21.541Z,97889.88
2023-01-13T05:25:21.711Z,97893.91
2023-01-13T05:27:49.564Z,97891.47
2023-01-13T05:30:17.578Z,97896.59
2023-01-13T05:32:45.284Z,97897.19
2023-01-13T05:35:13.043Z,97898.84
2023-01-13T05:37:40.775Z,97905.81
2023-01-13T05:40:27.750Z,97900.34
2023-01-13T05:43:21.608Z,97904.47
2023-01-13T05:45:58.500Z,97898.06
2023-01-13T05:48:31.315Z,97901.63
2023-01-13T05:50:59.426Z,97905.69
2023-01-13T05:53:27.238Z,97903.63
2023-01-13T05:55:55.114Z,97902.28
2023-01-13T05:58:24.429Z,97899.34
2023-01-13T06:00:52.305Z,97896.72
2023-01-13T06:03:20.288Z,97909.22
2023-01-13T06:05:48.206Z,97898.03
2023-01-13T06:08:15.949Z,97896.59
2023-01-13T06:10:43.620Z,97902.66
2023-01-13T06:13:11.345Z,97900.25
2023-01-13T06:15:39.063Z,97901.56
2023-01-13T06:18:06.769Z,97908.13
2023-01-13T06:20:34.460Z,97912.28
2023-01-13T06:23:02.241Z,97912.72
2023-01-13T06:25:48.063Z,97914.75
2023-01-13T06:28:15.823Z,97921.16
2023-01-13T06:30:51.020Z,97917.50
2023-01-13T06:33:21.294Z,97920.69
2023-01-13T06:35:52.268Z,97915.78
2023-01-13T06:38:20.086Z,97911.59
2023-01-13T06:40:47.785Z,97919.34
2023-01-13T06:43:16.699Z,97917.13
2023-01-13T06:45:50.547Z,97922.13
2023-01-13T06:48:19.935Z,97925.41
2023-01-13T06:50:47.701Z,97924.97
2023-01-13T06:53:15.457Z,97925.41
2023-01-13T06:55:43.165Z,97921.25
2023-01-13T06:58:10.962Z,97932.16
2023-01-13T07:00:38.686Z,97939.50
2023-01-13T07:03:16.301Z,97933.84
2023-01-13T07:05:44.413Z,97930.22
2023-01-13T07:08:12.309Z,97935.59
2023-01-13T07:10:40.020Z,97936.03
2023-01-13T07:13:26.575Z,97929.59
2023-01-13T07:15:58.116Z,97934.44
2023-01-13T07:18:27.429Z,97927.38
2023-01-13T07:20:56.692Z,97932.81
2023-01-13T07:23:25.287Z,97934.03
2023-01-13T07:25:55.319Z,97936.94
2023-01-13T07:28:23.828Z,97942.00
2023-01-13T07:30:51.668Z,97936.25
2023-01-13T07:33:19.519Z,97939.81
2023-01-13T07:35:47.372Z,97941.16
2023-01-13T07:38:15.508Z,97943.00
2023-01-13T07:40:43.193Z,97940.44
2023-01-13T07:43:31.105Z,97942.06
2023-01-13T07:45:59.586Z,97943.59
2023-01-13T07:48:27.613Z,97935.41
2023-01-13T07:50:55.612Z,97943.25
2023-01-13T07:53:25.044Z,97941.09
2023-01-13T07:55:56.937Z,97937.22
2023-01-13T07:58:25.448Z,97941.19
2023-01-13T08:00:53.465Z,97934.28
2023-01-13T08:03:21.802Z,97944.16
2023-01-13T08:05:49.506Z,97949.63
2023-01-13T08:08:17.314Z,97946.78
2023-01-13T08:10:45.091Z,97950.06
2023-01-13T08:13:17.625Z,97948.59
2023-01-13T08:15:46.308Z,97950.53
2023-01-13T08:18:14.047Z,97957.72
2023-01-13T08:20:41.880Z,97956.78
2023-01-13T08:23:09.661Z,97949.16
2023-01-13T08:25:37.359Z,97953.28
2023-01-13T08:28:05.165Z,97950.59
2023-01-13T08:30:32.923Z,97956.16
2023-01-13T08:33:00.739Z,97955.50
2023-01-13T08:35:28.451Z,97957.63
2023-01-13T08:37:56.186Z,97954.38
2023-01-13T08:40:23.883Z,97954.03
2023-01-13T08:42:52.909Z,97955.84
2023-01-13T08:45:20.650Z,97963.97
2023-01-13T08:47:48.388Z,97958.75
2023-01-13T08:50:16.225Z,97955.94
2023-01-13T08:52:43.973Z,97949.16
2023-01-13T08:55:11.819Z,97957.28
2023-01-13T08:57:39.507Z,97951.16
2023-01-13T09:00:07.771Z,97952.28
2023-01-13T09:02:35.461Z,97947.38
2023-01-13T09:05:04.570Z,97950.56
2023-01-13T09:07:32.287Z,97941.47
2023-01-13T09:10:00.063Z,97936.03
2023-01-13T09:12:46.644Z,97938.44
2023-01-13T09:15:14.434Z,97932.31
2023-01-13T09:17:42.104Z,97932.53
2023-01-13T09:20:10.698Z,97931.69
2023-01-13T09:22:39.206Z,97933.19
2023-01-13T09:25:07.409Z,97932.03
2023-01-13T09:27:35.143Z,97930.13
2023-01-13T09:30:02.941Z,97926.50
2023-01-13T09:32:30.693Z,97926.50
2023-01-13T09:35:01.625Z,97921.16
2023-01-13T09:37:30.641Z,97920.22
2023-01-13T09:39:58.395Z,97927.50
2023-01-13T09:43:07.871Z,97921.34
2023-01-13T09:45:42.754Z,97922.38
2023-01-13T09:48:26.637Z,97919.59
2023-01-13T09:51:06.794Z,97915.84
2023-01-13T09:53:38.728Z,97924.13
2023-01-13T09:56:06.551Z,97914.25
2023-01-13T09:58:34.725Z,97918.63
2023-01-13T10:01:28.789Z,97919.31
2023-01-13T10:03:56.569Z,97911.06
2023-01-13T10:06:33.461Z,97915.22
2023-01-13T10:09:01.173Z,97918.81
2023-01-13T10:11:58.291Z,97912.44
2023-01-13T10:14:35.113Z,97903.13
2023-01-13T10:17:11.990Z,97908.38
2023-01-13T10:19:44.063Z,97897.56
2023-01-13T10:22:31.127Z,97896.44
2023-01-13T10:25:29.733Z,97901.09
2023-01-13T10:28:04.221Z,97898.31
2023-01-13T10:30:39.077Z,97898.19
2023-01-13T10:33:10.349Z,97903.09
2023-01-13T10:35:53.458Z,97902.34
2023-01-13T10:38:30.043Z,97901.34
2023-01-13T10:40:59.318Z,97902.59
2023-01-13T10:43:27.714Z,97905.00
2023-01-13T10:46:21.975Z,97890.63
2023-01-13T10:48:58.658Z,97893.47
2023-01-13T10:51:46.704Z,97883.41
2023-01-13T10:54:20.324Z,97880.47
2023-01-13T10:56:48.187Z,97882.63
2023-01-13T10:59:23.524Z,97873.16
2023-01-13T11:02:25.467Z,97875.34
2023-01-13T11:04:53.806Z,97868.84
2023-01-13T11:07:45.530Z,97873.13
2023-01-13T11:10:24.428Z,97870.03
2023-01-13T11:13:20.646Z,97863.84
2023-01-13T11:16:13.861Z,97876.06
2023-01-13T11:19:02.123Z,97862.22
2023-01-13T11:21:51.308Z,97870.00
2023-01-13T11:24:40.126Z,97860.00
2023-01-13T11:27:20.070Z,97864.69
2023-01-13T11:30:25.711Z,97862.84
2023-01-13T11:33:12.223Z,97850.09
2023-01-13T11:35:47.787Z,97856.00
2023-01-13T11:38:41.795Z,97858.84
2023-01-13T11:41:35.453Z,97857.91
2023-01-13T11:44:18.163Z,97841.69
2023-01-13T11:46:48.285Z,97853.38
2023-01-13T11:49:36.141Z,97851.72
2023-01-13T11:52:20.118Z,97837.13
2023-01-13T11:54:57.414Z,97843.38
2023-01-13T11:57:31.759Z,97836.63
2023-01-13T12:00:17.838Z,97837.31
2023-01-13T12:03:10.792Z,97832.19
2023-01-13T12:05:48.531Z,97830.69
2023-01-13T12:08:28.268Z,97834.44
2023-01-13T12:11:01.450Z,97826.53
2023-01-13T12:13:44.562Z,97830.09
2023-01-13T12:16:15.122Z,97827.84
2023-01-13T12:19:07.528Z,97834.69
2023-01-13T12:21:39.278Z,97827.09
2023-01-13T12:24:23.259Z,97828.06
2023-01-13T12:26:55.191Z,97824.50
2023-01-13T12:29:30.891Z,97826.41
2023-01-13T12:32:00.245Z,97816.38
2023-01-13T12:34:27.928Z,97822.50
2023-01-13T12:37:19.930Z,97827.84
2023-01-13T12:39:59.593Z,97818.50
2023-01-13T12:43:04.108Z,97823.31
2023-01-13T12:45:32.757Z,97829.91
2023-01-13T12:48:00.723Z,97826.88
2023-01-13T12:50:29.164Z,97823.03
2023-01-13T12:53:01.033Z,97834.59
2023-01-13T12:55:36.700Z,97832.03
2023-01-13T12:58:10.351Z,97824.69
2023-01-13T13:00:54.285Z,97829.19
2023-01-13T13:03:30.575Z,97832.56
2023-01-13T13:06:20.254Z,97829.44
2023-01-13T13:09:27.015Z,97831.75
2023-01-13T13:12:03.632Z,97825.47
2023-01-13T13:14:55.504Z,97829.28
2023-01-13T13:17:29.041Z,97831.09
2023-01-13T13:19:57.050Z,97824.19
2023-01-13T13:22:27.504Z,97838.97
2023-01-13T13:24:55.150Z,97835.41
2023-01-13T13:27:31.709Z,97838.59
2023-01-13T13:30:00.358Z,97837.78
2023-01-13T13:32:58.866Z,97842.34
2023-01-13T13:35:40.346Z,97849.91
2023-01-13T13:38:44.787Z,97839.66
2023-01-13T13:41:41.848Z,97830.59
2023-01-13T13:44:55.214Z,97830.34
2023-01-13T13:47:23.022Z,97832.84
2023-01-13T13:49:54.602Z,97840.44
2023-01-13T13:52:30.742Z,97843.25
2023-01-13T13:55:05.740Z,97834.16
2023-01-13T13:57:39.849Z,97845.25
2023-01-13T14:00:34.456Z,97835.44
2023-01-13T14:03:04.065Z,97835.69
2023-01-13T14:05:33.095Z,97825.09
2023-01-13T14:08:00.737Z,97836.97
2023-01-13T14:10:36.419Z,97833.06
2023-01-13T14:13:26.172Z,97833.13
2023-01-13T14:16:00.919Z,97840.63
2023-01-13T14:18:29.933Z,97837.75
2023-01-13T14:21:19.409Z,97845.63
2023-01-13T14:24:02.039Z,97843.75
2023-01-13T14:26:31.314Z,97840.50
2023-01-13T14:29:00.610Z,97846.50
2023-01-13T14:31:28.550Z,97849.59
2023-01-13T14:33:57.573Z,97844.69
2023-01-13T14:36:36.578Z,97855.81
2023-01-13T14:39:04.237Z,97849.22
2023-01-13T14:41:36.006Z,97853.38
2023-01-13T14:44:10.044Z,97854.28
2023-01-13T14:46:42.273Z,97850.75
2023-01-13T14:49:41.407Z,97844.50
2023-01-13T14:52:23.265Z,97846.03
2023-01-13T14:54:52.012Z,97837.13
2023-01-13T14:57:32.691Z,97843.88
2023-01-13T15:00:08.032Z,97843.78
2023-01-13T15:02:43.007Z,97843.03
2023-01-13T15:05:19.700Z,97840.16
2023-01-13T15:08:03.258Z,97839.84
2023-01-13T15:10:50.814Z,97841.63
2023-01-13T15:13:26.403Z,97847.81
2023-01-13T15:15:58.239Z,97841.94
2023-01-13T15:18:26.074Z,97835.69
2023-01-13T15:20:54.277Z,97834.44
2023-01-13T15:23:22.045Z,97853.81
2023-01-13T15:25:51.808Z,97849.25
2023-01-13T15:28:28.199Z,97847.38
2023-01-13T15:31:01.749Z,97845.81
2023-01-13T15:33:30.405Z,97848.16
2023-01-13T15:35:58.127Z,97853.34
2023-01-13T15:38:25.850Z,97851.31
2023-01-13T15:40:53.825Z,97855.31
2023-01-13T15:43:41.392Z,97859.03
2023-01-13T15:46:35.574Z,97857.19
2023-01-13T15:49:10.031Z,97856.41
2023-01-13T15:51:38.867Z,97853.66
2023-01-13T15:54:09.553Z,97852.31
2023-01-13T15:56:37.980Z,97853.66
2023-01-13T15:59:09.709Z,97847.44
2023-01-13T16:01:37.503Z,97852.38
2023-01-13T16:04:05.513Z,97848.34
2023-01-13T16:06:33.348Z,97841.56
2023-01-13T16:09:02.983Z,97838.69
2023-01-13T16:11:31.397Z,97838.84
2023-01-13T16:13:59.164Z,97842.19
2023-01-13T16:16:27.857Z,97839.34
2023-01-13T16:18:56.128Z,97841.41
2023-01-13T16:21:24.008Z,97835.31
2023-01-13T16:23:51.875Z,97848.72
2023-01-13T16:26:24.464Z,97831.75
2023-01-13T16:28:53.569Z,97834.94
2023-01-13T16:31:33.341Z,97841.75
2023-01-13T16:34:02.365Z,97837.72
2023-01-13T16:36:31.197Z,97837.50
2023-01-13T16:38:58.990Z,97835.44
2023-01-13T16:41:26.845Z,97838.97
2023-01-13T16:43:54.630Z,97833.03
2023-01-13T16:46:29.098Z,97840.56
2023-01-13T16:48:58.667Z,97841.53
2023-01-13T16:51:26.392Z,97843.47
2023-01-13T16:53:54.146Z,97845.06
2023-01-13T16:56:28.633Z,97839.34
2023-01-13T16:59:08.977Z,97838.97
2023-01-13T17:01:38.654Z,97840.56
2023-01-13T17:04:07.589Z,97844.59
2023-01-13T17:06:41.340Z,97847.31
2023-01-13T17:09:15.990Z,97845.56
2023-01-13T17:11:43.763Z,97836.50
2023-01-13T17:14:18.227Z,97843.91
2023-01-13T17:16:47.959Z,97835.00
2023-01-13T17:19:15.775Z,97836.50
2023-01-13T17:21:44.252Z,97829.50
2023-01-13T17:24:12.481Z,97832.50
2023-01-13T17:26:45.074Z,97832.00
2023-01-13T17:29:15.217Z,97833.84
2023-01-13T17:31:42.982Z,97827.47
2023-01-13T17:34:11.609Z,97819.06
2023-01-13T17:36:45.094Z,97829.50
2023-01-13T17:39:20.291Z,97828.38
2023-01-13T17:41:48.098Z,97826.16
2023-01-13T17:44:16.849Z,97824.31
2023-01-13T17:46:44.703Z,97826.75
2023-01-13T17:49:16.491Z,97814.06
2023-01-13T17:51:47.337Z,97823.88
2023-01-13T17:54:15.903Z,97822.50
2023-01-13T17:56:43.668Z,97824.47
2023-01-13T17:59:11.757Z,97821.94
2023-01-13T18:01:39.975Z,97826.53
2023-01-13T18:04:09.127Z,97826.34
2023-01-13T18:06:36.882Z,97824.94
2023-01-13T18:09:06.074Z,97825.22
2023-01-13T18:11:33.832Z,97837.41
2023-01-13T18:14:02.777Z,97832.84
2023-01-13T18:16:30.949Z,97827.69
2023-01-13T18:19:18.800Z,97827.75
2023-01-13T18:22:05.528Z,97834.31
2023-01-13T18:24:51.915Z,97835.34
2023-01-13T18:27:24.951Z,97830.50
2023-01-13T18:29:54.590Z,97835.59
2023-01-13T18:32:26.398Z,97841.78
2023-01-13T18:35:05.041Z,97842.09
2023-01-13T18:37:36.151Z,97839.22
2023-01-13T18:40:04.979Z,97838.94
2023-01-13T18:42:51.499Z,97837.91
2023-01-13T18:45:27.557Z,97834.91
2023-01-13T18:47:56.887Z,97833.56
2023-01-13T18:50:24.695Z,97835.59
2023-01-13T18:52:52.441Z,97836.53
2023-01-13T18:55:20.362Z,97840.47
2023-01-13T18:57:48.840Z,97833.25
2023-01-13T19:00:19.118Z,97828.94
2023-01-13T19:05:34.546Z,97818.91
2023-01-13T19:08:02.903Z,97815.25
2023-01-13T19:10:32.363Z,97828.81
2023-01-13T19:13:01.748Z,97823.41
2023-01-13T19:15:29.858Z,97820.44
2023-01-13T19:17:57.670Z,97822.47
2023-01-13T19:20:25.522Z,97810.28
2023-01-13T19:22:54.513Z,97814.88
2023-01-13T19:25:22.457Z,97810.25
2023-01-13T19:27:50.230Z,97816.91
2023-01-13T19:30:18.117Z,97824.13
2023-01-13T19:32:45.949Z,97819.22
2023-01-13T19:35:17.391Z,97824.34
2023-01-13T19:37:45.660Z,97821.94
2023-01-13T19:40:13.942Z,97821.13
2023-01-13T19:43:04.831Z,97818.59
2023-01-13T19:45:35.322Z,97827.53
2023-01-13T19:48:05.877Z,97817.78
2023-01-13T19:50:39.964Z,97818.84
2023-01-13T19:53:14.822Z,97816.06
2023-01-13T19:55:48.481Z,97802.03
2023-01-13T19:58:18.876Z,97802.50
2023-01-13T20:00:47.286Z,97800.13
2023-01-13T20:03:15.509Z,97796.66
2023-01-13T20:05:43.341Z,97801.06
2023-01-13T20:08:12.352Z,97805.50
2023-01-13T20:10:40.554Z,97799.34
2023-01-13T20:13:08.583Z,97790.25
2023-01-13T20:15:38.011Z,97792.13
2023-01-13T20:18:05.795Z,97792.06
2023-01-13T20:20:33.495Z,97793.09
2023-01-13T20:23:01.238Z,97791.59
2023-01-13T20:25:29.062Z,97790.13
2023-01-13T20:27:56.952Z,97785.41
2023-01-13T20:30:24.786Z,97786.03
2023-01-13T20:32:52.717Z,97782.59
2023-01-13T20:35:20.574Z,97787.03
2023-01-13T20:37:48.231Z,97787.84
2023-01-13T20:40:16.227Z,97786.59
2023-01-13T20:42:46.720Z,97799.50
2023-01-13T20:45:17.760Z,97791.81
2023-01-13T20:47:45.685Z,97793.91
2023-01-13T20:50:13.873Z,97799.13
2023-01-13T20:52:41.666Z,97794.06
2023-01-13T20:55:09.667Z,97789.31
2023-01-13T20:57:37.405Z,97794.75
2023-01-13T21:00:05.919Z,97781.03
2023-01-13T21:02:33.583Z,97785.00
2023-01-13T21:05:02.103Z,97785.19
2023-01-13T21:07:29.765Z,97786.56
2023-01-13T21:09:57.836Z,97779.38
2023-01-13T21:12:44.839Z,97782.41
2023-01-13T21:15:18.499Z,97774.41
2023-01-13T21:18:05.172Z,97774.25
2023-01-13T21:20:33.857Z,97781.06
2023-01-13T21:23:02.541Z,97784.38
2023-01-13T21:25:30.666Z,97771.44
2023-01-13T21:28:08.565Z,97768.59
2023-01-13T21:30:38.999Z,97769.50
2023-01-13T21:33:06.757Z,97770.44
2023-01-13T21:35:37.778Z,97765.41
2023-01-13T21:38:05.558Z,97759.53
2023-01-13T21:40:33.230Z,97782.41
2023-01-13T21:43:21.623Z,97780.88
2023-01-13T21:46:08.078Z,97775.59
2023-01-13T21:48:35.812Z,97783.91
2023-01-13T21:51:03.599Z,97774.34
2023-01-13T21:53:31.345Z,97772.88
2023-01-13T21:55:59.085Z,97776.03
2023-01-13T21:58:26.754Z,97779.72
2023-01-13T22:00:55.099Z,97782.63
2023-01-13T22:03:22.946Z,97787.56
2023-01-13T22:05:55.744Z,97783.28
2023-01-13T22:08:23.550Z,97779.28
2023-01-13T22:10:58.231Z,97781.97
2023-01-13T22:13:45.888Z,97784.38
2023-01-13T22:16:14.535Z,97788.19
2023-01-13T22:18:42.812Z,97787.22
2023-01-13T22:21:11.096Z,97785.00
2023-01-13T22:23:38.790Z,97784.84
2023-01-13T22:26:07.391Z,97782.00
2023-01-13T22:28:40.663Z,97788.94
2023-01-13T22:31:13.225Z,97781.69
2023-01-13T22:33:41.900Z,97781.03
2023-01-13T22:36:10.100Z,97773.50
2023-01-13T22:38:37.783Z,97771.78
2023-01-13T22:41:07.482Z,97770.19
2023-01-13T22:43:35.724Z,97772.59
2023-01-13T22:46:11.023Z,97775.31
2023-01-13T22:48:39.428Z,97758.25
2023-01-13T22:51:11.896Z,97779.75
2023-01-13T22:53:39.716Z,97770.34
2023-01-13T22:56:08.274Z,97776.19
2023-01-13T22:58:35.951Z,97771.47
2023-01-13T23:01:14.995Z,97777.50
2023-01-13T23:03:45.476Z,97784.66
2023-01-13T23:06:14.329Z,97785.13
2023-01-13T23:08:42.041Z,97774.59
2023-01-13T23:11:11.685Z,97776.84
2023-01-13T23:13:40.115Z,97782.19
2023-01-13T23:16:10.146Z,97785.44
2023-01-13T23:18:37.870Z,97784.59
2023-01-13T23:21:06.824Z,97784.38
2023-01-13T23:23:34.879Z,97772.50
2023-01-13T23:26:03.152Z,97774.94
2023-01-13T23:28:32.466Z,97774.53
2023-01-13T23:31:00.999Z,97765.06
2023-01-13T23:33:29.232Z,97762.38
2023-01-13T23:36:01.227Z,97767.47
2023-01-13T23:38:29.707Z,97770.47
2023-01-13T23:40:57.447Z,97763.50
2023-01-13T23:43:26.346Z,97780.06
2023-01-13T23:46:04.522Z,97774.13
2023-01-13T23:48:32.871Z,97782.09
2023-01-13T23:51:01.106Z,97786.41
2023-01-13T23:53:34.430Z,97784.00
2023-01-13T23:56:02.720Z,97784.78
2023-01-13T23:58:30.620Z,97788.59
